sensor_id;sensor_type;location;lat;lon;timestamp;P1;durP1;ratioP1;P2;durP2;ratioP2
48853;SDS011;34673;52.808;17.856;2022-10-12T00:02:37;20.13;;;6.88;;
48853;SDS011;34673;52.808;17.856;2022-10-12T00:05:04;23.10;;;7.57;;
48853;SDS011;34673;52.808;17.856;2022-10-12T00:07:32;19.27;;;6.70;;
48853;SDS011;34673;52.808;17.856;2022-10-12T00:09:59;18.73;;;6.57;;
48853;SDS011;34673;52.808;17.856;2022-10-12T00:12:26;21.75;;;7.15;;
48853;SDS011;34673;52.808;17.856;2022-10-12T00:14:53;20.50;;;6.60;;
48853;SDS011;34673;52.808;17.856;2022-10-12T00:17:21;20.20;;;6.78;;
48853;SDS011;34673;52.808;17.856;2022-10-12T00:19:49;22.00;;;6.75;;
48853;SDS011;34673;52.808;17.856;2022-10-12T00:22:16;21.08;;;6.72;;
48853;SDS011;34673;52.808;17.856;2022-10-12T00:24:44;20.38;;;6.72;;
48853;SDS011;34673;52.808;17.856;2022-10-12T00:27:11;17.63;;;5.95;;
48853;SDS011;34673;52.808;17.856;2022-10-12T00:29:38;18.50;;;6.90;;
48853;SDS011;34673;52.808;17.856;2022-10-12T00:32:06;24.23;;;6.50;;
48853;SDS011;34673;52.808;17.856;2022-10-12T00:34:33;18.65;;;7.03;;
48853;SDS011;34673;52.808;17.856;2022-10-12T00:37:00;23.27;;;6.75;;
48853;SDS011;34673;52.808;17.856;2022-10-12T00:39:27;19.58;;;6.60;;
48853;SDS011;34673;52.808;17.856;2022-10-12T00:41:54;16.98;;;5.78;;
48853;SDS011;34673;52.808;17.856;2022-10-12T00:47:29;18.55;;;6.20;;
48853;SDS011;34673;52.808;17.856;2022-10-12T00:50:04;20.65;;;6.40;;
48853;SDS011;34673;52.808;17.856;2022-10-12T00:55:47;18.38;;;6.15;;
48853;SDS011;34673;52.808;17.856;2022-10-12T00:58:19;25.13;;;7.15;;
48853;SDS011;34673;52.808;17.856;2022-10-12T01:00:48;15.52;;;6.15;;
48853;SDS011;34673;52.808;17.856;2022-10-12T01:03:17;25.10;;;7.85;;
48853;SDS011;34673;52.808;17.856;2022-10-12T01:08:14;19.95;;;6.55;;
48853;SDS011;34673;52.808;17.856;2022-10-12T01:10:41;20.77;;;6.20;;
48853;SDS011;34673;52.808;17.856;2022-10-12T01:13:10;19.95;;;6.82;;
48853;SDS011;34673;52.808;17.856;2022-10-12T01:15:38;15.48;;;6.63;;
48853;SDS011;34673;52.808;17.856;2022-10-12T01:18:20;16.48;;;6.15;;
48853;SDS011;34673;52.808;17.856;2022-10-12T01:32:23;20.17;;;6.70;;
48853;SDS011;34673;52.808;17.856;2022-10-12T01:35:15;19.58;;;6.50;;
48853;SDS011;34673;52.808;17.856;2022-10-12T01:40:50;18.30;;;6.35;;
48853;SDS011;34673;52.808;17.856;2022-10-12T01:43:40;22.27;;;6.72;;
48853;SDS011;34673;52.808;17.856;2022-10-12T01:48:38;17.65;;;6.20;;
48853;SDS011;34673;52.808;17.856;2022-10-12T01:51:06;21.73;;;7.82;;
48853;SDS011;34673;52.808;17.856;2022-10-12T01:53:45;18.73;;;6.35;;
48853;SDS011;34673;52.808;17.856;2022-10-12T01:56:35;19.45;;;6.93;;
48853;SDS011;34673;52.808;17.856;2022-10-12T02:04:36;20.35;;;6.35;;
48853;SDS011;34673;52.808;17.856;2022-10-12T02:07:22;19.85;;;6.65;;
48853;SDS011;34673;52.808;17.856;2022-10-12T02:10:16;18.23;;;6.82;;
48853;SDS011;34673;52.808;17.856;2022-10-12T02:12:50;19.48;;;6.38;;
48853;SDS011;34673;52.808;17.856;2022-10-12T02:15:20;20.90;;;6.85;;
48853;SDS011;34673;52.808;17.856;2022-10-12T02:17:50;20.13;;;6.97;;
48853;SDS011;34673;52.808;17.856;2022-10-12T02:20:19;19.55;;;6.55;;
48853;SDS011;34673;52.808;17.856;2022-10-12T02:25:19;19.77;;;6.72;;
48853;SDS011;34673;52.808;17.856;2022-10-12T02:27:51;15.18;;;6.10;;
48853;SDS011;34673;52.808;17.856;2022-10-12T02:30:25;17.65;;;6.72;;
48853;SDS011;34673;52.808;17.856;2022-10-12T02:33:05;19.65;;;6.20;;
48853;SDS011;34673;52.808;17.856;2022-10-12T02:35:39;21.08;;;6.78;;
48853;SDS011;34673;52.808;17.856;2022-10-12T02:38:19;18.90;;;6.68;;
48853;SDS011;34673;52.808;17.856;2022-10-12T02:40:55;19.05;;;6.45;;
48853;SDS011;34673;52.808;17.856;2022-10-12T02:43:28;21.52;;;6.85;;
48853;SDS011;34673;52.808;17.856;2022-10-12T02:46:03;18.13;;;6.55;;
48853;SDS011;34673;52.808;17.856;2022-10-12T02:48:34;24.33;;;7.32;;
48853;SDS011;34673;52.808;17.856;2022-10-12T02:51:05;17.63;;;6.75;;
48853;SDS011;34673;52.808;17.856;2022-10-12T02:53:34;21.30;;;6.72;;
48853;SDS011;34673;52.808;17.856;2022-10-12T02:56:03;15.98;;;6.28;;
48853;SDS011;34673;52.808;17.856;2022-10-12T02:58:32;19.52;;;7.05;;
48853;SDS011;34673;52.808;17.856;2022-10-12T03:00:59;21.85;;;6.88;;
48853;SDS011;34673;52.808;17.856;2022-10-12T03:03:28;23.40;;;7.03;;
48853;SDS011;34673;52.808;17.856;2022-10-12T03:05:55;25.83;;;6.88;;
48853;SDS011;34673;52.808;17.856;2022-10-12T03:08:23;20.38;;;6.70;;
48853;SDS011;34673;52.808;17.856;2022-10-12T03:10:50;17.27;;;6.18;;
48853;SDS011;34673;52.808;17.856;2022-10-12T03:13:17;16.15;;;5.88;;
48853;SDS011;34673;52.808;17.856;2022-10-12T03:15:45;21.15;;;7.38;;
48853;SDS011;34673;52.808;17.856;2022-10-12T03:18:12;20.77;;;6.20;;
48853;SDS011;34673;52.808;17.856;2022-10-12T03:20:39;21.98;;;6.20;;
48853;SDS011;34673;52.808;17.856;2022-10-12T03:23:06;17.23;;;6.50;;
48853;SDS011;34673;52.808;17.856;2022-10-12T03:25:33;19.90;;;6.50;;
48853;SDS011;34673;52.808;17.856;2022-10-12T03:28:01;18.20;;;6.82;;
48853;SDS011;34673;52.808;17.856;2022-10-12T03:30:28;15.20;;;6.05;;
48853;SDS011;34673;52.808;17.856;2022-10-12T03:32:56;17.40;;;6.57;;
48853;SDS011;34673;52.808;17.856;2022-10-12T03:35:23;20.70;;;6.38;;
48853;SDS011;34673;52.808;17.856;2022-10-12T03:37:50;17.85;;;5.88;;
48853;SDS011;34673;52.808;17.856;2022-10-12T03:40:17;16.48;;;6.50;;
48853;SDS011;34673;52.808;17.856;2022-10-12T03:42:45;19.27;;;6.80;;
48853;SDS011;34673;52.808;17.856;2022-10-12T03:45:12;17.60;;;6.85;;
48853;SDS011;34673;52.808;17.856;2022-10-12T03:47:39;17.40;;;6.47;;
48853;SDS011;34673;52.808;17.856;2022-10-12T03:50:07;15.45;;;5.75;;
48853;SDS011;34673;52.808;17.856;2022-10-12T03:52:34;16.67;;;6.10;;
48853;SDS011;34673;52.808;17.856;2022-10-12T03:55:02;19.52;;;6.40;;
48853;SDS011;34673;52.808;17.856;2022-10-12T03:57:29;18.85;;;6.28;;
48853;SDS011;34673;52.808;17.856;2022-10-12T03:59:56;16.60;;;6.80;;
48853;SDS011;34673;52.808;17.856;2022-10-12T04:02:24;19.92;;;6.55;;
48853;SDS011;34673;52.808;17.856;2022-10-12T04:04:51;18.50;;;6.65;;
48853;SDS011;34673;52.808;17.856;2022-10-12T04:07:19;19.50;;;6.53;;
48853;SDS011;34673;52.808;17.856;2022-10-12T04:09:47;13.70;;;6.18;;
48853;SDS011;34673;52.808;17.856;2022-10-12T04:12:14;17.83;;;6.88;;
48853;SDS011;34673;52.808;17.856;2022-10-12T04:14:41;13.48;;;5.65;;
48853;SDS011;34673;52.808;17.856;2022-10-12T04:17:09;16.45;;;6.50;;
48853;SDS011;34673;52.808;17.856;2022-10-12T04:19:36;16.48;;;6.55;;
48853;SDS011;34673;52.808;17.856;2022-10-12T04:22:03;15.65;;;5.70;;
48853;SDS011;34673;52.808;17.856;2022-10-12T04:24:30;19.17;;;6.68;;
48853;SDS011;34673;52.808;17.856;2022-10-12T04:26:58;18.63;;;6.25;;
48853;SDS011;34673;52.808;17.856;2022-10-12T04:29:25;15.02;;;5.72;;
48853;SDS011;34673;52.808;17.856;2022-10-12T04:31:52;18.40;;;5.90;;
48853;SDS011;34673;52.808;17.856;2022-10-12T04:34:20;15.45;;;6.30;;
48853;SDS011;34673;52.808;17.856;2022-10-12T04:36:47;19.90;;;6.90;;
48853;SDS011;34673;52.808;17.856;2022-10-12T04:39:14;24.60;;;6.82;;
48853;SDS011;34673;52.808;17.856;2022-10-12T04:41:42;16.70;;;6.65;;
48853;SDS011;34673;52.808;17.856;2022-10-12T04:44:10;23.67;;;6.68;;
48853;SDS011;34673;52.808;17.856;2022-10-12T04:46:37;18.13;;;6.13;;
48853;SDS011;34673;52.808;17.856;2022-10-12T04:49:04;16.95;;;5.60;;
48853;SDS011;34673;52.808;17.856;2022-10-12T04:51:31;17.30;;;6.10;;
48853;SDS011;34673;52.808;17.856;2022-10-12T04:54:00;19.13;;;5.90;;
48853;SDS011;34673;52.808;17.856;2022-10-12T04:56:27;16.95;;;6.70;;
48853;SDS011;34673;52.808;17.856;2022-10-12T04:58:54;16.17;;;6.03;;
48853;SDS011;34673;52.808;17.856;2022-10-12T05:01:22;12.48;;;5.80;;
48853;SDS011;34673;52.808;17.856;2022-10-12T05:03:49;16.63;;;6.03;;
48853;SDS011;34673;52.808;17.856;2022-10-12T05:06:17;18.13;;;5.80;;
48853;SDS011;34673;52.808;17.856;2022-10-12T05:08:44;24.80;;;6.55;;
48853;SDS011;34673;52.808;17.856;2022-10-12T05:11:11;19.05;;;6.75;;
48853;SDS011;34673;52.808;17.856;2022-10-12T05:13:38;17.50;;;6.80;;
48853;SDS011;34673;52.808;17.856;2022-10-12T05:16:05;19.58;;;6.82;;
48853;SDS011;34673;52.808;17.856;2022-10-12T05:18:33;18.55;;;6.90;;
48853;SDS011;34673;52.808;17.856;2022-10-12T05:21:00;19.73;;;6.13;;
48853;SDS011;34673;52.808;17.856;2022-10-12T05:23:27;18.90;;;6.30;;
48853;SDS011;34673;52.808;17.856;2022-10-12T05:25:55;21.58;;;6.63;;
48853;SDS011;34673;52.808;17.856;2022-10-12T05:28:22;14.70;;;5.50;;
48853;SDS011;34673;52.808;17.856;2022-10-12T05:30:51;12.95;;;5.35;;
48853;SDS011;34673;52.808;17.856;2022-10-12T05:33:19;19.70;;;6.13;;
48853;SDS011;34673;52.808;17.856;2022-10-12T05:35:47;14.63;;;5.80;;
48853;SDS011;34673;52.808;17.856;2022-10-12T05:38:20;18.30;;;7.07;;
48853;SDS011;34673;52.808;17.856;2022-10-12T05:40:47;19.23;;;7.00;;
48853;SDS011;34673;52.808;17.856;2022-10-12T05:43:14;16.48;;;6.22;;
48853;SDS011;34673;52.808;17.856;2022-10-12T05:45:42;16.92;;;7.28;;
48853;SDS011;34673;52.808;17.856;2022-10-12T05:48:09;21.15;;;6.88;;
48853;SDS011;34673;52.808;17.856;2022-10-12T05:50:36;16.23;;;6.43;;
48853;SDS011;34673;52.808;17.856;2022-10-12T05:53:03;19.80;;;6.13;;
48853;SDS011;34673;52.808;17.856;2022-10-12T05:55:30;16.88;;;5.65;;
48853;SDS011;34673;52.808;17.856;2022-10-12T05:57:58;21.25;;;5.97;;
48853;SDS011;34673;52.808;17.856;2022-10-12T06:00:25;17.73;;;6.15;;
48853;SDS011;34673;52.808;17.856;2022-10-12T06:02:52;15.52;;;6.35;;
48853;SDS011;34673;52.808;17.856;2022-10-12T06:05:19;17.48;;;6.85;;
48853;SDS011;34673;52.808;17.856;2022-10-12T06:07:47;16.00;;;5.32;;
48853;SDS011;34673;52.808;17.856;2022-10-12T06:10:14;16.55;;;6.28;;
48853;SDS011;34673;52.808;17.856;2022-10-12T06:12:41;20.27;;;6.22;;
48853;SDS011;34673;52.808;17.856;2022-10-12T06:15:09;16.73;;;6.63;;
48853;SDS011;34673;52.808;17.856;2022-10-12T06:17:36;20.70;;;6.35;;
48853;SDS011;34673;52.808;17.856;2022-10-12T06:20:04;20.85;;;7.13;;
48853;SDS011;34673;52.808;17.856;2022-10-12T06:22:31;22.88;;;6.47;;
48853;SDS011;34673;52.808;17.856;2022-10-12T06:24:59;17.20;;;6.38;;
48853;SDS011;34673;52.808;17.856;2022-10-12T06:27:26;18.38;;;6.40;;
48853;SDS011;34673;52.808;17.856;2022-10-12T06:29:53;17.00;;;6.20;;
48853;SDS011;34673;52.808;17.856;2022-10-12T06:32:20;17.88;;;6.57;;
48853;SDS011;34673;52.808;17.856;2022-10-12T06:34:48;18.52;;;6.57;;
48853;SDS011;34673;52.808;17.856;2022-10-12T06:37:15;18.50;;;6.63;;
48853;SDS011;34673;52.808;17.856;2022-10-12T06:40:02;17.40;;;5.95;;
48853;SDS011;34673;52.808;17.856;2022-10-12T06:42:31;17.90;;;6.25;;
48853;SDS011;34673;52.808;17.856;2022-10-12T06:44:58;15.30;;;6.28;;
48853;SDS011;34673;52.808;17.856;2022-10-12T06:47:25;18.10;;;6.10;;
48853;SDS011;34673;52.808;17.856;2022-10-12T06:49:53;16.23;;;5.90;;
48853;SDS011;34673;52.808;17.856;2022-10-12T06:52:20;22.00;;;6.57;;
48853;SDS011;34673;52.808;17.856;2022-10-12T06:54:48;23.08;;;6.35;;
48853;SDS011;34673;52.808;17.856;2022-10-12T06:57:16;18.98;;;6.22;;
48853;SDS011;34673;52.808;17.856;2022-10-12T06:59:43;17.15;;;6.00;;
48853;SDS011;34673;52.808;17.856;2022-10-12T07:02:10;14.07;;;5.65;;
48853;SDS011;34673;52.808;17.856;2022-10-12T07:04:37;17.33;;;6.00;;
48853;SDS011;34673;52.808;17.856;2022-10-12T07:07:05;17.25;;;6.97;;
48853;SDS011;34673;52.808;17.856;2022-10-12T07:09:32;18.20;;;5.80;;
48853;SDS011;34673;52.808;17.856;2022-10-12T07:11:59;20.48;;;6.43;;
48853;SDS011;34673;52.808;17.856;2022-10-12T07:14:27;17.05;;;5.25;;
48853;SDS011;34673;52.808;17.856;2022-10-12T07:16:54;21.48;;;6.00;;
48853;SDS011;34673;52.808;17.856;2022-10-12T07:19:21;18.02;;;6.45;;
48853;SDS011;34673;52.808;17.856;2022-10-12T07:21:48;22.52;;;6.65;;
48853;SDS011;34673;52.808;17.856;2022-10-12T07:24:15;18.35;;;6.63;;
48853;SDS011;34673;52.808;17.856;2022-10-12T07:26:43;20.73;;;6.63;;
48853;SDS011;34673;52.808;17.856;2022-10-12T07:29:10;18.08;;;6.70;;
48853;SDS011;34673;52.808;17.856;2022-10-12T07:31:37;17.52;;;6.57;;
48853;SDS011;34673;52.808;17.856;2022-10-12T07:34:04;17.63;;;6.95;;
48853;SDS011;34673;52.808;17.856;2022-10-12T07:36:32;24.08;;;7.97;;
48853;SDS011;34673;52.808;17.856;2022-10-12T07:39:19;17.95;;;6.65;;
48853;SDS011;34673;52.808;17.856;2022-10-12T07:41:49;19.17;;;7.07;;
48853;SDS011;34673;52.808;17.856;2022-10-12T07:44:18;22.92;;;7.22;;
48853;SDS011;34673;52.808;17.856;2022-10-12T07:46:46;19.83;;;6.93;;
48853;SDS011;34673;52.808;17.856;2022-10-12T07:49:14;16.02;;;6.97;;
48853;SDS011;34673;52.808;17.856;2022-10-12T07:51:42;23.90;;;7.85;;
48853;SDS011;34673;52.808;17.856;2022-10-12T07:54:10;22.40;;;6.78;;
48853;SDS011;34673;52.808;17.856;2022-10-12T07:56:43;21.92;;;6.55;;
48853;SDS011;34673;52.808;17.856;2022-10-12T07:59:10;23.30;;;7.15;;
48853;SDS011;34673;52.808;17.856;2022-10-12T08:01:37;19.85;;;7.35;;
48853;SDS011;34673;52.808;17.856;2022-10-12T08:04:04;18.17;;;7.15;;
48853;SDS011;34673;52.808;17.856;2022-10-12T08:06:32;20.50;;;7.40;;
48853;SDS011;34673;52.808;17.856;2022-10-12T08:09:00;18.67;;;7.28;;
48853;SDS011;34673;52.808;17.856;2022-10-12T08:11:28;22.60;;;7.55;;
48853;SDS011;34673;52.808;17.856;2022-10-12T08:13:55;16.48;;;7.13;;
48853;SDS011;34673;52.808;17.856;2022-10-12T08:16:22;21.75;;;7.45;;
48853;SDS011;34673;52.808;17.856;2022-10-12T08:18:50;18.42;;;6.72;;
48853;SDS011;34673;52.808;17.856;2022-10-12T08:21:17;20.00;;;6.75;;
48853;SDS011;34673;52.808;17.856;2022-10-12T08:23:45;14.38;;;6.57;;
48853;SDS011;34673;52.808;17.856;2022-10-12T08:26:13;16.05;;;6.32;;
48853;SDS011;34673;52.808;17.856;2022-10-12T08:28:41;16.77;;;6.72;;
48853;SDS011;34673;52.808;17.856;2022-10-12T08:31:10;19.63;;;7.53;;
48853;SDS011;34673;52.808;17.856;2022-10-12T08:33:42;21.85;;;7.00;;
48853;SDS011;34673;52.808;17.856;2022-10-12T08:36:10;20.63;;;7.75;;
48853;SDS011;34673;52.808;17.856;2022-10-12T08:38:38;16.77;;;6.85;;
48853;SDS011;34673;52.808;17.856;2022-10-12T08:46:37;22.15;;;7.38;;
48853;SDS011;34673;52.808;17.856;2022-10-12T08:49:06;15.88;;;6.20;;
48853;SDS011;34673;52.808;17.856;2022-10-12T08:51:56;15.63;;;6.18;;
48853;SDS011;34673;52.808;17.856;2022-10-12T08:54:34;18.20;;;6.10;;
48853;SDS011;34673;52.808;17.856;2022-10-12T08:57:16;19.73;;;6.45;;
48853;SDS011;34673;52.808;17.856;2022-10-12T08:59:45;20.10;;;5.47;;
48853;SDS011;34673;52.808;17.856;2022-10-12T09:04:53;14.48;;;6.00;;
48853;SDS011;34673;52.808;17.856;2022-10-12T09:07:25;13.93;;;5.53;;
48853;SDS011;34673;52.808;17.856;2022-10-12T09:15:55;14.15;;;4.35;;
48853;SDS011;34673;52.808;17.856;2022-10-12T09:18:38;11.82;;;3.47;;
48853;SDS011;34673;52.808;17.856;2022-10-12T09:21:12;10.35;;;2.92;;
48853;SDS011;34673;52.808;17.856;2022-10-12T09:23:44;12.43;;;3.17;;
48853;SDS011;34673;52.808;17.856;2022-10-12T09:31:20;15.57;;;2.80;;
48853;SDS011;34673;52.808;17.856;2022-10-12T09:34:07;12.27;;;2.40;;
48853;SDS011;34673;52.808;17.856;2022-10-12T09:36:36;13.88;;;3.20;;
48853;SDS011;34673;52.808;17.856;2022-10-12T09:39:06;11.38;;;3.17;;
48853;SDS011;34673;52.808;17.856;2022-10-12T09:41:41;11.60;;;3.30;;
48853;SDS011;34673;52.808;17.856;2022-10-12T09:47:22;15.23;;;2.88;;
48853;SDS011;34673;52.808;17.856;2022-10-12T09:49:56;13.52;;;3.13;;
48853;SDS011;34673;52.808;17.856;2022-10-12T09:57:42;12.25;;;3.08;;
48853;SDS011;34673;52.808;17.856;2022-10-12T10:00:22;13.50;;;3.28;;
48853;SDS011;34673;52.808;17.856;2022-10-12T10:02:55;8.57;;;2.33;;
48853;SDS011;34673;52.808;17.856;2022-10-12T10:05:24;12.18;;;2.70;;
48853;SDS011;34673;52.808;17.856;2022-10-12T10:07:52;11.43;;;2.95;;
48853;SDS011;34673;52.808;17.856;2022-10-12T10:18:03;14.18;;;3.38;;
48853;SDS011;34673;52.808;17.856;2022-10-12T10:20:48;14.77;;;3.15;;
48853;SDS011;34673;52.808;17.856;2022-10-12T10:23:22;10.13;;;2.90;;
48853;SDS011;34673;52.808;17.856;2022-10-12T10:25:56;11.73;;;2.97;;
48853;SDS011;34673;52.808;17.856;2022-10-12T10:28:36;10.55;;;3.28;;
48853;SDS011;34673;52.808;17.856;2022-10-12T10:36:34;10.07;;;2.72;;
48853;SDS011;34673;52.808;17.856;2022-10-12T10:39:06;11.35;;;2.83;;
48853;SDS011;34673;52.808;17.856;2022-10-12T10:41:46;12.82;;;2.80;;
48853;SDS011;34673;52.808;17.856;2022-10-12T10:46:50;9.05;;;2.40;;
48853;SDS011;34673;52.808;17.856;2022-10-12T10:49:22;9.00;;;2.38;;
48853;SDS011;34673;52.808;17.856;2022-10-12T10:52:00;12.23;;;2.78;;
48853;SDS011;34673;52.808;17.856;2022-10-12T10:54:29;11.55;;;2.70;;
48853;SDS011;34673;52.808;17.856;2022-10-12T10:57:00;14.20;;;3.05;;
48853;SDS011;34673;52.808;17.856;2022-10-12T10:59:41;10.85;;;2.40;;
48853;SDS011;34673;52.808;17.856;2022-10-12T11:05:16;13.18;;;2.97;;
48853;SDS011;34673;52.808;17.856;2022-10-12T11:07:47;14.10;;;2.60;;
48853;SDS011;34673;52.808;17.856;2022-10-12T11:10:21;10.02;;;3.15;;
48853;SDS011;34673;52.808;17.856;2022-10-12T11:12:55;9.15;;;2.45;;
48853;SDS011;34673;52.808;17.856;2022-10-12T11:15:41;10.95;;;3.08;;
48853;SDS011;34673;52.808;17.856;2022-10-12T11:21:11;10.57;;;3.35;;
48853;SDS011;34673;52.808;17.856;2022-10-12T11:26:38;12.07;;;3.10;;
48853;SDS011;34673;52.808;17.856;2022-10-12T11:29:11;11.13;;;3.25;;
48853;SDS011;34673;52.808;17.856;2022-10-12T11:31:46;11.00;;;3.38;;
48853;SDS011;34673;52.808;17.856;2022-10-12T11:34:38;10.23;;;2.60;;
48853;SDS011;34673;52.808;17.856;2022-10-12T11:37:18;9.20;;;2.80;;
48853;SDS011;34673;52.808;17.856;2022-10-12T11:39:49;8.27;;;2.42;;
48853;SDS011;34673;52.808;17.856;2022-10-12T11:42:30;7.97;;;2.45;;
48853;SDS011;34673;52.808;17.856;2022-10-12T11:45:02;8.10;;;2.70;;
48853;SDS011;34673;52.808;17.856;2022-10-12T11:47:37;13.68;;;2.50;;
48853;SDS011;34673;52.808;17.856;2022-10-12T11:52:55;7.88;;;2.60;;
48853;SDS011;34673;52.808;17.856;2022-10-12T12:13:06;7.45;;;1.90;;
48853;SDS011;34673;52.808;17.856;2022-10-12T12:15:39;6.10;;;1.42;;
48853;SDS011;34673;52.808;17.856;2022-10-12T12:26:26;5.38;;;1.15;;
48853;SDS011;34673;52.808;17.856;2022-10-12T12:29:14;5.32;;;1.30;;
48853;SDS011;34673;52.808;17.856;2022-10-12T12:31:53;5.22;;;1.45;;
48853;SDS011;34673;52.808;17.856;2022-10-12T12:34:27;6.05;;;1.77;;
48853;SDS011;34673;52.808;17.856;2022-10-12T12:36:54;6.18;;;1.85;;
48853;SDS011;34673;52.808;17.856;2022-10-12T12:41:59;4.80;;;1.35;;
48853;SDS011;34673;52.808;17.856;2022-10-12T12:49:47;8.32;;;1.48;;
48853;SDS011;34673;52.808;17.856;2022-10-12T12:55:08;6.03;;;1.13;;
48853;SDS011;34673;52.808;17.856;2022-10-12T13:08:50;3.20;;;0.75;;
48853;SDS011;34673;52.808;17.856;2022-10-12T13:20:15;3.03;;;1.05;;
48853;SDS011;34673;52.808;17.856;2022-10-12T13:22:48;5.80;;;1.20;;
48853;SDS011;34673;52.808;17.856;2022-10-12T13:25:33;4.55;;;1.40;;
48853;SDS011;34673;52.808;17.856;2022-10-12T13:28:06;4.35;;;1.20;;
48853;SDS011;34673;52.808;17.856;2022-10-12T13:33:31;6.10;;;0.77;;
48853;SDS011;34673;52.808;17.856;2022-10-12T13:38:45;4.53;;;1.38;;
48853;SDS011;34673;52.808;17.856;2022-10-12T13:49:01;4.25;;;1.27;;
48853;SDS011;34673;52.808;17.856;2022-10-12T13:51:29;6.13;;;1.10;;
48853;SDS011;34673;52.808;17.856;2022-10-12T13:53:57;3.47;;;1.30;;
48853;SDS011;34673;52.808;17.856;2022-10-12T13:56:25;5.70;;;0.90;;
48853;SDS011;34673;52.808;17.856;2022-10-12T13:58:58;3.55;;;1.20;;
48853;SDS011;34673;52.808;17.856;2022-10-12T14:01:45;5.10;;;1.40;;
48853;SDS011;34673;52.808;17.856;2022-10-12T14:04:14;4.43;;;0.90;;
48853;SDS011;34673;52.808;17.856;2022-10-12T14:06:42;3.42;;;1.08;;
48853;SDS011;34673;52.808;17.856;2022-10-12T14:09:18;4.68;;;1.10;;
48853;SDS011;34673;52.808;17.856;2022-10-12T14:11:48;6.05;;;1.00;;
48853;SDS011;34673;52.808;17.856;2022-10-12T14:14:27;3.75;;;0.80;;
48853;SDS011;34673;52.808;17.856;2022-10-12T14:16:59;3.45;;;0.95;;
48853;SDS011;34673;52.808;17.856;2022-10-12T14:19:45;3.35;;;0.98;;
48853;SDS011;34673;52.808;17.856;2022-10-12T14:22:20;4.05;;;1.10;;
48853;SDS011;34673;52.808;17.856;2022-10-12T14:27:57;3.50;;;0.80;;
48853;SDS011;34673;52.808;17.856;2022-10-12T14:30:31;6.20;;;1.23;;
48853;SDS011;34673;52.808;17.856;2022-10-12T14:33:08;4.40;;;1.00;;
48853;SDS011;34673;52.808;17.856;2022-10-12T14:35:36;4.18;;;1.20;;
48853;SDS011;34673;52.808;17.856;2022-10-12T14:44:17;5.72;;;1.73;;
48853;SDS011;34673;52.808;17.856;2022-10-12T14:46:49;5.25;;;1.52;;
48853;SDS011;34673;52.808;17.856;2022-10-12T14:49:24;4.38;;;1.40;;
48853;SDS011;34673;52.808;17.856;2022-10-12T14:51:58;6.82;;;1.50;;
48853;SDS011;34673;52.808;17.856;2022-10-12T14:54:26;5.07;;;1.13;;
48853;SDS011;34673;52.808;17.856;2022-10-12T14:56:53;5.03;;;1.45;;
48853;SDS011;34673;52.808;17.856;2022-10-12T14:59:37;8.63;;;1.27;;
48853;SDS011;34673;52.808;17.856;2022-10-12T15:02:10;4.53;;;1.40;;
48853;SDS011;34673;52.808;17.856;2022-10-12T15:04:44;3.00;;;1.02;;
48853;SDS011;34673;52.808;17.856;2022-10-12T15:07:18;4.22;;;1.00;;
48853;SDS011;34673;52.808;17.856;2022-10-12T15:09:51;6.85;;;1.20;;
48853;SDS011;34673;52.808;17.856;2022-10-12T15:12:19;6.38;;;1.40;;
48853;SDS011;34673;52.808;17.856;2022-10-12T15:17:22;3.38;;;1.20;;
48853;SDS011;34673;52.808;17.856;2022-10-12T15:19:50;4.47;;;1.17;;
48853;SDS011;34673;52.808;17.856;2022-10-12T15:24:47;7.63;;;1.65;;
48853;SDS011;34673;52.808;17.856;2022-10-12T15:27:15;4.07;;;1.27;;
48853;SDS011;34673;52.808;17.856;2022-10-12T15:29:42;7.85;;;1.90;;
48853;SDS011;34673;52.808;17.856;2022-10-12T15:32:10;7.97;;;2.60;;
48853;SDS011;34673;52.808;17.856;2022-10-12T15:34:40;10.32;;;3.20;;
48853;SDS011;34673;52.808;17.856;2022-10-12T15:37:08;6.13;;;2.40;;
48853;SDS011;34673;52.808;17.856;2022-10-12T15:39:35;5.43;;;1.80;;
48853;SDS011;34673;52.808;17.856;2022-10-12T15:42:03;5.70;;;1.88;;
48853;SDS011;34673;52.808;17.856;2022-10-12T15:44:30;5.10;;;1.50;;
48853;SDS011;34673;52.808;17.856;2022-10-12T15:47:04;5.00;;;1.45;;
48853;SDS011;34673;52.808;17.856;2022-10-12T15:49:31;4.38;;;1.40;;
48853;SDS011;34673;52.808;17.856;2022-10-12T15:51:58;4.60;;;1.30;;
48853;SDS011;34673;52.808;17.856;2022-10-12T15:54:26;3.78;;;1.20;;
48853;SDS011;34673;52.808;17.856;2022-10-12T15:56:53;4.40;;;1.40;;
48853;SDS011;34673;52.808;17.856;2022-10-12T15:59:20;6.55;;;1.70;;
48853;SDS011;34673;52.808;17.856;2022-10-12T16:01:47;4.13;;;1.42;;
48853;SDS011;34673;52.808;17.856;2022-10-12T16:04:14;9.98;;;2.05;;
48853;SDS011;34673;52.808;17.856;2022-10-12T16:06:42;6.50;;;1.92;;
48853;SDS011;34673;52.808;17.856;2022-10-12T16:09:09;6.45;;;2.00;;
48853;SDS011;34673;52.808;17.856;2022-10-12T16:11:37;5.97;;;2.65;;
48853;SDS011;34673;52.808;17.856;2022-10-12T16:14:04;7.55;;;2.85;;
48853;SDS011;34673;52.808;17.856;2022-10-12T16:16:32;12.00;;;4.22;;
48853;SDS011;34673;52.808;17.856;2022-10-12T16:18:59;10.02;;;3.03;;
48853;SDS011;34673;52.808;17.856;2022-10-12T16:21:26;10.23;;;3.88;;
48853;SDS011;34673;52.808;17.856;2022-10-12T16:23:53;11.40;;;3.70;;
48853;SDS011;34673;52.808;17.856;2022-10-12T16:26:20;11.52;;;4.25;;
48853;SDS011;34673;52.808;17.856;2022-10-12T16:28:48;18.08;;;7.50;;
48853;SDS011;34673;52.808;17.856;2022-10-12T16:31:15;16.75;;;5.97;;
48853;SDS011;34673;52.808;17.856;2022-10-12T16:33:43;9.75;;;4.15;;
48853;SDS011;34673;52.808;17.856;2022-10-12T16:36:12;9.95;;;3.70;;
48853;SDS011;34673;52.808;17.856;2022-10-12T16:38:41;11.50;;;4.45;;
48853;SDS011;34673;52.808;17.856;2022-10-12T16:41:09;12.48;;;5.10;;
48853;SDS011;34673;52.808;17.856;2022-10-12T16:43:38;12.30;;;4.78;;
48853;SDS011;34673;52.808;17.856;2022-10-12T16:46:05;10.82;;;4.45;;
48853;SDS011;34673;52.808;17.856;2022-10-12T16:48:33;14.07;;;5.63;;
48853;SDS011;34673;52.808;17.856;2022-10-12T16:51:04;22.27;;;7.75;;
48853;SDS011;34673;52.808;17.856;2022-10-12T16:53:35;21.17;;;8.50;;
48853;SDS011;34673;52.808;17.856;2022-10-12T16:56:03;25.30;;;10.98;;
48853;SDS011;34673;52.808;17.856;2022-10-12T16:58:30;30.42;;;14.10;;
48853;SDS011;34673;52.808;17.856;2022-10-12T17:01:11;28.27;;;11.98;;
48853;SDS011;34673;52.808;17.856;2022-10-12T17:03:39;18.15;;;8.43;;
48853;SDS011;34673;52.808;17.856;2022-10-12T17:06:06;15.77;;;5.93;;
48853;SDS011;34673;52.808;17.856;2022-10-12T17:08:34;11.80;;;4.70;;
48853;SDS011;34673;52.808;17.856;2022-10-12T17:11:08;12.38;;;5.28;;
48853;SDS011;34673;52.808;17.856;2022-10-12T17:13:37;19.10;;;7.85;;
48853;SDS011;34673;52.808;17.856;2022-10-12T17:16:12;16.15;;;7.53;;
48853;SDS011;34673;52.808;17.856;2022-10-12T17:18:57;12.98;;;6.68;;
48853;SDS011;34673;52.808;17.856;2022-10-12T17:21:25;12.13;;;5.05;;
48853;SDS011;34673;52.808;17.856;2022-10-12T17:23:57;11.32;;;4.18;;
48853;SDS011;34673;52.808;17.856;2022-10-12T17:26:25;15.30;;;4.30;;
48853;SDS011;34673;52.808;17.856;2022-10-12T17:28:53;13.60;;;3.22;;
48853;SDS011;34673;52.808;17.856;2022-10-12T17:31:21;11.68;;;3.47;;
48853;SDS011;34673;52.808;17.856;2022-10-12T17:33:48;12.23;;;3.53;;
48853;SDS011;34673;52.808;17.856;2022-10-12T17:36:16;10.95;;;3.15;;